sensor_id;sensor_type;location;lat;lon;timestamp;pressure;altitude;pressure_sealevel;temperature;humidity
76746;BME280;65671;49.976;20.038;2023-06-22T00:01:50;98152.19;;;19.05;100.00
76746;BME280;65671;49.976;20.038;2023-06-22T00:04:16;98150.53;;;19.08;100.00
76746;BME280;65671;49.976;20.038;2023-06-22T00:06:41;98157.25;;;19.07;100.00
76746;BME280;65671;49.976;20.038;2023-06-22T00:09:07;98156.66;;;19.12;100.00
76746;BME280;65671;49.976;20.038;2023-06-22T00:11:33;98156.09;;;19.17;100.00
76746;BME280;65671;49.976;20.038;2023-06-22T00:13:59;98170.22;;;19.28;100.00
76746;BME280;65671;49.976;20.038;2023-06-22T00:16:25;98189.50;;;19.15;100.00
76746;BME280;65671;49.976;20.038;2023-06-22T00:18:50;98184.97;;;19.21;100.00
76746;BME280;65671;49.976;20.038;2023-06-22T00:21:16;98179.38;;;19.25;100.00
76746;BME280;65671;49.976;20.038;2023-06-22T00:23:41;98181.97;;;19.28;100.00
76746;BME280;65671;49.976;20.038;2023-06-22T00:26:08;98186.47;;;19.35;100.00
76746;BME280;65671;49.976;20.038;2023-06-22T00:28:33;98180.75;;;19.42;100.00
76746;BME280;65671;49.976;20.038;2023-06-22T00:30:59;98181.09;;;19.31;100.00
76746;BME280;65671;49.976;20.038;2023-06-22T00:33:26;98174.50;;;19.29;100.00
76746;BME280;65671;49.976;20.038;2023-06-22T00:35:51;98175.50;;;19.22;100.00
76746;BME280;65671;49.976;20.038;2023-06-22T00:38:19;98165.31;;;19.23;100.00
76746;BME280;65671;49.976;20.038;2023-06-22T00:40:44;98174.06;;;19.30;100.00
76746;BME280;65671;49.976;20.038;2023-06-22T00:43:10;98164.72;;;19.28;100.00
76746;BME280;65671;49.976;20.038;2023-06-22T00:45:35;98161.94;;;19.19;100.00
76746;BME280;65671;49.976;20.038;2023-06-22T00:48:01;98155.78;;;19.15;100.00
76746;BME280;65671;49.976;20.038;2023-06-22T00:50:30;98147.47;;;19.06;100.00
76746;BME280;65671;49.976;20.038;2023-06-22T00:53:08;98148.34;;;19.03;100.00
76746;BME280;65671;49.976;20.038;2023-06-22T00:55:38;98156.78;;;19.08;100.00
76746;BME280;65671;49.976;20.038;2023-06-22T00:58:08;98152.03;;;19.21;100.00
76746;BME280;65671;49.976;20.038;2023-06-22T01:00:35;98149.72;;;19.20;100.00
76746;BME280;65671;49.976;20.038;2023-06-22T01:03:02;98158.66;;;19.11;100.00
76746;BME280;65671;49.976;20.038;2023-06-22T01:05:28;98150.53;;;19.08;100.00
76746;BME280;65671;49.976;20.038;2023-06-22T01:08:09;98148.66;;;19.05;100.00
76746;BME280;65671;49.976;20.038;2023-06-22T01:11:18;98148.81;;;19.01;100.00
76746;BME280;65671;49.976;20.038;2023-06-22T01:14:04;98141.38;;;18.89;100.00
76746;BME280;65671;49.976;20.038;2023-06-22T01:16:35;98143.44;;;18.98;100.00
76746;BME280;65671;49.976;20.038;2023-06-22T01:19:09;98139.03;;;19.00;100.00
76746;BME280;65671;49.976;20.038;2023-06-22T01:21:39;98135.97;;;18.98;100.00
76746;BME280;65671;49.976;20.038;2023-06-22T01:26:46;98137.09;;;18.88;100.00
76746;BME280;65671;49.976;20.038;2023-06-22T01:29:14;98131.47;;;18.91;100.00
76746;BME280;65671;49.976;20.038;2023-06-22T01:31:42;98132.00;;;18.99;100.00
76746;BME280;65671;49.976;20.038;2023-06-22T01:34:10;98133.97;;;18.99;100.00
76746;BME280;65671;49.976;20.038;2023-06-22T01:36:38;98134.22;;;18.91;100.00
76746;BME280;65671;49.976;20.038;2023-06-22T01:39:05;98138.84;;;18.82;100.00
76746;BME280;65671;49.976;20.038;2023-06-22T01:41:38;98136.13;;;18.82;100.00
76746;BME280;65671;49.976;20.038;2023-06-22T01:44:05;98140.72;;;18.85;100.00
76746;BME280;65671;49.976;20.038;2023-06-22T01:46:35;98134.72;;;18.77;100.00
76746;BME280;65671;49.976;20.038;2023-06-22T01:49:02;98135.22;;;18.85;100.00
76746;BME280;65671;49.976;20.038;2023-06-22T01:51:29;98142.69;;;18.84;100.00
76746;BME280;65671;49.976;20.038;2023-06-22T01:53:55;98141.91;;;18.84;100.00
76746;BME280;65671;49.976;20.038;2023-06-22T01:56:20;98144.47;;;18.78;100.00
76746;BME280;65671;49.976;20.038;2023-06-22T01:58:50;98143.47;;;18.85;100.00
76746;BME280;65671;49.976;20.038;2023-06-22T02:01:29;98146.97;;;18.85;100.00
76746;BME280;65671;49.976;20.038;2023-06-22T02:04:06;98138.75;;;18.85;100.00
76746;BME280;65671;49.976;20.038;2023-06-22T02:06:37;98154.44;;;18.85;100.00
76746;BME280;65671;49.976;20.038;2023-06-22T02:09:09;98147.75;;;18.86;100.00
76746;BME280;65671;49.976;20.038;2023-06-22T02:11:37;98151.69;;;18.85;100.00
76746;BME280;65671;49.976;20.038;2023-06-22T02:14:05;98145.63;;;18.90;100.00
76746;BME280;65671;49.976;20.038;2023-06-22T02:16:32;98140.28;;;18.86;100.00
76746;BME280;65671;49.976;20.038;2023-06-22T02:19:00;98141.59;;;18.82;100.00
76746;BME280;65671;49.976;20.038;2023-06-22T02:21:29;98141.09;;;18.74;100.00
76746;BME280;65671;49.976;20.038;2023-06-22T02:23:55;98146.34;;;18.69;100.00
76746;BME280;65671;49.976;20.038;2023-06-22T02:26:20;98142.72;;;18.72;100.00
76746;BME280;65671;49.976;20.038;2023-06-22T02:28:46;98148.97;;;18.72;100.00
76746;BME280;65671;49.976;20.038;2023-06-22T02:31:11;98155.69;;;18.71;100.00
76746;BME280;65671;49.976;20.038;2023-06-22T02:33:37;98160.19;;;18.65;100.00
76746;BME280;65671;49.976;20.038;2023-06-22T02:36:02;98148.13;;;18.63;100.00
76746;BME280;65671;49.976;20.038;2023-06-22T02:38:34;98152.72;;;18.66;100.00
76746;BME280;65671;49.976;20.038;2023-06-22T02:41:02;98156.41;;;18.72;100.00
76746;BME280;65671;49.976;20.038;2023-06-22T02:43:27;98154.25;;;18.67;100.00
76746;BME280;65671;49.976;20.038;2023-06-22T02:45:53;98159.94;;;18.72;100.00
76746;BME280;65671;49.976;20.038;2023-06-22T02:48:18;98161.47;;;18.73;100.00
76746;BME280;65671;49.976;20.038;2023-06-22T02:50:44;98162.56;;;18.76;100.00
76746;BME280;65671;49.976;20.038;2023-06-22T02:53:09;98164.66;;;18.72;100.00
76746;BME280;65671;49.976;20.038;2023-06-22T02:55:35;98158.53;;;18.68;100.00
76746;BME280;65671;49.976;20.038;2023-06-22T02:58:00;98164.00;;;18.68;100.00
76746;BME280;65671;49.976;20.038;2023-06-22T03:00:30;98162.38;;;18.58;100.00
76746;BME280;65671;49.976;20.038;2023-06-22T03:02:56;98165.00;;;18.49;100.00
76746;BME280;65671;49.976;20.038;2023-06-22T03:05:22;98180.47;;;18.55;100.00
76746;BME280;65671;49.976;20.038;2023-06-22T03:07:48;98174.84;;;18.46;100.00
76746;BME280;65671;49.976;20.038;2023-06-22T03:10:14;98176.38;;;18.34;100.00
76746;BME280;65671;49.976;20.038;2023-06-22T03:12:41;98185.06;;;18.33;100.00
76746;BME280;65671;49.976;20.038;2023-06-22T03:15:11;98181.31;;;18.39;100.00
76746;BME280;65671;49.976;20.038;2023-06-22T03:17:38;98179.81;;;18.51;100.00
76746;BME280;65671;49.976;20.038;2023-06-22T03:20:05;98178.81;;;18.58;100.00
76746;BME280;65671;49.976;20.038;2023-06-22T03:22:41;98185.19;;;18.67;100.00
76746;BME280;65671;49.976;20.038;2023-06-22T03:25:08;98187.81;;;18.71;100.00
76746;BME280;65671;49.976;20.038;2023-06-22T03:27:38;98190.47;;;18.74;100.00
76746;BME280;65671;49.976;20.038;2023-06-22T03:30:05;98191.66;;;18.73;100.00
76746;BME280;65671;49.976;20.038;2023-06-22T03:32:31;98195.69;;;18.81;100.00
76746;BME280;65671;49.976;20.038;2023-06-22T03:34:56;98197.03;;;18.77;100.00
76746;BME280;65671;49.976;20.038;2023-06-22T03:37:24;98204.03;;;18.78;100.00
76746;BME280;65671;49.976;20.038;2023-06-22T03:39:50;98198.56;;;18.78;100.00
76746;BME280;65671;49.976;20.038;2023-06-22T03:42:15;98197.91;;;18.74;100.00
76746;BME280;65671;49.976;20.038;2023-06-22T03:44:41;98204.91;;;18.75;100.00
76746;BME280;65671;49.976;20.038;2023-06-22T03:47:06;98207.91;;;18.80;100.00
76746;BME280;65671;49.976;20.038;2023-06-22T03:49:33;98218.53;;;18.78;100.00
76746;BME280;65671;49.976;20.038;2023-06-22T03:52:00;98206.47;;;18.76;100.00
76746;BME280;65671;49.976;20.038;2023-06-22T03:54:26;98211.84;;;18.79;100.00
76746;BME280;65671;49.976;20.038;2023-06-22T03:56:51;98207.75;;;18.84;100.00
76746;BME280;65671;49.976;20.038;2023-06-22T03:59:17;98208.22;;;18.82;100.00
76746;BME280;65671;49.976;20.038;2023-06-22T04:01:42;98218.53;;;18.91;100.00
76746;BME280;65671;49.976;20.038;2023-06-22T04:04:08;98218.75;;;18.84;100.00
76746;BME280;65671;49.976;20.038;2023-06-22T04:06:33;98224.22;;;18.84;100.00
76746;BME280;65671;49.976;20.038;2023-06-22T04:08:59;98226.34;;;18.80;100.00
76746;BME280;65671;49.976;20.038;2023-06-22T04:11:26;98220.06;;;18.79;100.00
76746;BME280;65671;49.976;20.038;2023-06-22T04:13:51;98231.16;;;18.88;100.00
76746;BME280;65671;49.976;20.038;2023-06-22T04:16:16;98225.97;;;19.03;100.00
76746;BME280;65671;49.976;20.038;2023-06-22T04:18:42;98219.03;;;19.11;100.00
76746;BME280;65671;49.976;20.038;2023-06-22T04:21:07;98225.50;;;19.17;100.00
76746;BME280;65671;49.976;20.038;2023-06-22T04:23:34;98231.19;;;19.23;100.00
76746;BME280;65671;49.976;20.038;2023-06-22T04:26:00;98227.97;;;19.37;100.00
76746;BME280;65671;49.976;20.038;2023-06-22T04:28:25;98230.97;;;19.42;100.00
76746;BME280;65671;49.976;20.038;2023-06-22T04:30:51;98237.63;;;19.54;100.00
76746;BME280;65671;49.976;20.038;2023-06-22T04:33:17;98244.00;;;19.73;99.75
76746;BME280;65671;49.976;20.038;2023-06-22T04:35:45;98242.88;;;19.83;99.46
76746;BME280;65671;49.976;20.038;2023-06-22T04:38:12;98236.50;;;19.86;98.90
76746;BME280;65671;49.976;20.038;2023-06-22T04:40:40;98235.72;;;19.85;99.28
76746;BME280;65671;49.976;20.038;2023-06-22T04:43:06;98231.84;;;19.95;98.46
76746;BME280;65671;49.976;20.038;2023-06-22T04:45:32;98243.31;;;20.03;98.23
76746;BME280;65671;49.976;20.038;2023-06-22T04:47:58;98240.81;;;20.18;97.27
76746;BME280;65671;49.976;20.038;2023-06-22T04:50:23;98247.78;;;20.31;97.15
76746;BME280;65671;49.976;20.038;2023-06-22T04:52:50;98251.31;;;20.32;96.66
76746;BME280;65671;49.976;20.038;2023-06-22T04:55:16;98256.03;;;20.31;97.56
76746;BME280;65671;49.976;20.038;2023-06-22T04:57:48;98256.31;;;20.46;97.63
76746;BME280;65671;49.976;20.038;2023-06-22T05:00:17;98258.34;;;20.54;97.16
76746;BME280;65671;49.976;20.038;2023-06-22T05:02:44;98259.28;;;20.70;96.66
76746;BME280;65671;49.976;20.038;2023-06-22T05:05:11;98255.22;;;20.83;95.35
76746;BME280;65671;49.976;20.038;2023-06-22T05:07:43;98255.59;;;21.03;94.03
76746;BME280;65671;49.976;20.038;2023-06-22T05:10:12;98252.00;;;21.16;94.35
76746;BME280;65671;49.976;20.038;2023-06-22T05:12:39;98258.59;;;21.27;93.26
76746;BME280;65671;49.976;20.038;2023-06-22T05:15:08;98256.94;;;21.39;92.85
76746;BME280;65671;49.976;20.038;2023-06-22T05:17:35;98274.09;;;21.52;92.37
76746;BME280;65671;49.976;20.038;2023-06-22T05:20:01;98265.09;;;21.69;91.50
76746;BME280;65671;49.976;20.038;2023-06-22T05:22:28;98265.50;;;21.50;91.98
76746;BME280;65671;49.976;20.038;2023-06-22T05:24:53;98268.22;;;21.32;92.74
76746;BME280;65671;49.976;20.038;2023-06-22T05:27:19;98278.53;;;21.40;94.92
76746;BME280;65671;49.976;20.038;2023-06-22T05:29:44;98276.38;;;21.53;92.55
76746;BME280;65671;49.976;20.038;2023-06-22T05:32:09;98264.16;;;21.82;92.00
76746;BME280;65671;49.976;20.038;2023-06-22T05:34:35;98265.53;;;21.86;91.65
76746;BME280;65671;49.976;20.038;2023-06-22T05:37:01;98264.16;;;21.82;91.47
76746;BME280;65671;49.976;20.038;2023-06-22T05:39:27;98266.63;;;21.98;90.88
76746;BME280;65671;49.976;20.038;2023-06-22T05:41:52;98261.09;;;21.98;91.17
76746;BME280;65671;49.976;20.038;2023-06-22T05:44:18;98264.78;;;22.04;90.74
76746;BME280;65671;49.976;20.038;2023-06-22T05:46:44;98266.91;;;22.09;90.54
76746;BME280;65671;49.976;20.038;2023-06-22T05:49:12;98269.66;;;22.27;91.13
76746;BME280;65671;49.976;20.038;2023-06-22T05:51:38;98273.59;;;22.35;90.56
76746;BME280;65671;49.976;20.038;2023-06-22T05:54:04;98275.16;;;22.36;90.00
76746;BME280;65671;49.976;20.038;2023-06-22T05:56:29;98275.41;;;22.47;89.20
76746;BME280;65671;49.976;20.038;2023-06-22T05:58:54;98282.31;;;22.61;88.99
76746;BME280;65671;49.976;20.038;2023-06-22T06:01:20;98283.81;;;22.62;88.98
76746;BME280;65671;49.976;20.038;2023-06-22T06:03:45;98284.88;;;22.73;88.30
76746;BME280;65671;49.976;20.038;2023-06-22T06:06:11;98283.94;;;22.76;89.57
76746;BME280;65671;49.976;20.038;2023-06-22T06:08:38;98296.78;;;22.89;89.19
76746;BME280;65671;49.976;20.038;2023-06-22T06:11:04;98298.56;;;23.01;86.95
76746;BME280;65671;49.976;20.038;2023-06-22T06:13:29;98295.13;;;23.15;88.99
76746;BME280;65671;49.976;20.038;2023-06-22T06:15:56;98305.84;;;23.22;86.68
76746;BME280;65671;49.976;20.038;2023-06-22T06:18:21;98296.16;;;22.94;87.30
76746;BME280;65671;49.976;20.038;2023-06-22T06:20:47;98296.91;;;23.27;86.77
76746;BME280;65671;49.976;20.038;2023-06-22T06:23:12;98300.28;;;23.31;86.82
76746;BME280;65671;49.976;20.038;2023-06-22T06:25:38;98300.28;;;23.31;86.29
76746;BME280;65671;49.976;20.038;2023-06-22T06:28:04;98301.31;;;23.33;85.77
76746;BME280;65671;49.976;20.038;2023-06-22T06:30:30;98301.53;;;23.54;86.24
76746;BME280;65671;49.976;20.038;2023-06-22T06:32:55;98300.97;;;23.50;87.31
76746;BME280;65671;49.976;20.038;2023-06-22T06:35:21;98301.13;;;23.46;85.59
76746;BME280;65671;49.976;20.038;2023-06-22T06:37:48;98307.66;;;23.58;85.94
76746;BME280;65671;49.976;20.038;2023-06-22T06:40:15;98315.59;;;23.65;83.92
76746;BME280;65671;49.976;20.038;2023-06-22T06:42:42;98314.94;;;23.13;84.87
76746;BME280;65671;49.976;20.038;2023-06-22T06:45:19;98314.09;;;23.31;86.40
76746;BME280;65671;49.976;20.038;2023-06-22T06:47:46;98315.97;;;23.25;84.51
76746;BME280;65671;49.976;20.038;2023-06-22T06:50:12;98310.44;;;23.25;86.52
76746;BME280;65671;49.976;20.038;2023-06-22T06:52:37;98309.78;;;23.39;84.83
76746;BME280;65671;49.976;20.038;2023-06-22T06:55:04;98303.97;;;23.28;86.64
76746;BME280;65671;49.976;20.038;2023-06-22T06:57:30;98303.78;;;23.08;88.54
76746;BME280;65671;49.976;20.038;2023-06-22T06:59:58;98302.19;;;23.72;85.81
76746;BME280;65671;49.976;20.038;2023-06-22T07:02:25;98296.38;;;23.70;85.12
76746;BME280;65671;49.976;20.038;2023-06-22T07:04:51;98310.03;;;23.88;84.62
76746;BME280;65671;49.976;20.038;2023-06-22T07:07:16;98312.28;;;23.99;83.56
76746;BME280;65671;49.976;20.038;2023-06-22T07:09:42;98313.88;;;23.91;84.15
76746;BME280;65671;49.976;20.038;2023-06-22T07:12:07;98309.41;;;23.94;84.20
76746;BME280;65671;49.976;20.038;2023-06-22T07:14:33;98307.09;;;23.92;85.10
76746;BME280;65671;49.976;20.038;2023-06-22T07:16:58;98304.22;;;24.25;85.29
76746;BME280;65671;49.976;20.038;2023-06-22T07:19:28;98296.69;;;24.55;84.64
76746;BME280;65671;49.976;20.038;2023-06-22T07:21:54;98297.94;;;24.54;81.89
76746;BME280;65671;49.976;20.038;2023-06-22T07:24:20;98296.50;;;24.87;79.94
76746;BME280;65671;49.976;20.038;2023-06-22T07:26:47;98300.31;;;24.75;82.14
76746;BME280;65671;49.976;20.038;2023-06-22T07:29:13;98300.31;;;24.61;80.09
76746;BME280;65671;49.976;20.038;2023-06-22T07:31:39;98296.50;;;24.87;81.29
76746;BME280;65671;49.976;20.038;2023-06-22T07:34:06;98297.06;;;24.48;80.64
76746;BME280;65671;49.976;20.038;2023-06-22T07:36:31;98283.03;;;24.66;83.20
76746;BME280;65671;49.976;20.038;2023-06-22T07:38:57;98291.06;;;24.78;81.99
76746;BME280;65671;49.976;20.038;2023-06-22T07:41:22;98281.91;;;25.22;81.00
76746;BME280;65671;49.976;20.038;2023-06-22T07:43:48;98284.91;;;25.18;81.34
76746;BME280;65671;49.976;20.038;2023-06-22T07:46:15;98281.81;;;24.81;80.80
76746;BME280;65671;49.976;20.038;2023-06-22T07:48:40;98284.06;;;25.12;78.41
76746;BME280;65671;49.976;20.038;2023-06-22T07:51:07;98280.81;;;25.34;79.42
76746;BME280;65671;49.976;20.038;2023-06-22T07:53:32;98275.69;;;25.27;79.86
76746;BME280;65671;49.976;20.038;2023-06-22T07:55:58;98281.63;;;25.20;78.73
76746;BME280;65671;49.976;20.038;2023-06-22T07:58:23;98275.47;;;24.95;78.56
76746;BME280;65671;49.976;20.038;2023-06-22T08:00:49;98285.44;;;25.22;79.88
76746;BME280;65671;49.976;20.038;2023-06-22T08:03:14;98286.69;;;25.21;79.79
76746;BME280;65671;49.976;20.038;2023-06-22T08:05:40;98292.78;;;25.25;80.61
76746;BME280;65671;49.976;20.038;2023-06-22T08:08:05;98293.31;;;25.84;79.60
76746;BME280;65671;49.976;20.038;2023-06-22T08:10:31;98300.13;;;26.03;78.97
76746;BME280;65671;49.976;20.038;2023-06-22T08:12:57;98305.09;;;25.99;76.02
76746;BME280;65671;49.976;20.038;2023-06-22T08:15:22;98306.19;;;26.07;76.04
76746;BME280;65671;49.976;20.038;2023-06-22T08:17:48;98313.50;;;26.05;76.36
76746;BME280;65671;49.976;20.038;2023-06-22T08:20:13;98304.28;;;25.73;74.18
76746;BME280;65671;49.976;20.038;2023-06-22T08:22:40;98307.97;;;25.65;75.56
76746;BME280;65671;49.976;20.038;2023-06-22T08:25:06;98306.66;;;25.80;76.91
76746;BME280;65671;49.976;20.038;2023-06-22T08:27:31;98314.00;;;25.63;77.74
76746;BME280;65671;49.976;20.038;2023-06-22T08:30:00;98316.09;;;25.33;77.30
76746;BME280;65671;49.976;20.038;2023-06-22T08:32:27;98302.06;;;25.22;76.71
76746;BME280;65671;49.976;20.038;2023-06-22T08:34:56;98309.38;;;25.40;76.99
76746;BME280;65671;49.976;20.038;2023-06-22T08:37:23;98309.34;;;25.75;77.25
76746;BME280;65671;49.976;20.038;2023-06-22T08:39:59;98305.00;;;26.14;71.59
76746;BME280;65671;49.976;20.038;2023-06-22T08:42:26;98309.41;;;26.00;72.89
76746;BME280;65671;49.976;20.038;2023-06-22T08:44:51;98305.91;;;26.26;73.01
76746;BME280;65671;49.976;20.038;2023-06-22T08:47:18;98303.81;;;26.41;73.66
76746;BME280;65671;49.976;20.038;2023-06-22T08:49:43;98314.03;;;27.12;69.81
76746;BME280;65671;49.976;20.038;2023-06-22T08:52:09;98306.44;;;26.81;68.07
76746;BME280;65671;49.976;20.038;2023-06-22T08:54:34;98313.75;;;26.53;66.51
76746;BME280;65671;49.976;20.038;2023-06-22T08:57:02;98314.91;;;25.95;68.32
76746;BME280;65671;49.976;20.038;2023-06-22T08:59:27;98318.25;;;25.44;72.01
76746;BME280;65671;49.976;20.038;2023-06-22T09:01:53;98313.66;;;25.21;70.97
76746;BME280;65671;49.976;20.038;2023-06-22T09:04:19;98316.84;;;25.34;68.96
76746;BME280;65671;49.976;20.038;2023-06-22T09:06:47;98315.28;;;25.47;69.71
76746;BME280;65671;49.976;20.038;2023-06-22T09:09:13;98314.31;;;25.16;66.37
76746;BME280;65671;49.976;20.038;2023-06-22T09:11:39;98314.88;;;25.55;66.94
76746;BME280;65671;49.976;20.038;2023-06-22T09:14:05;98312.72;;;26.04;67.76
76746;BME280;65671;49.976;20.038;2023-06-22T09:16:31;98311.53;;;26.83;66.88
76746;BME280;65671;49.976;20.038;2023-06-22T09:18:57;98310.47;;;26.54;66.34
76746;BME280;65671;49.976;20.038;2023-06-22T09:21:23;98310.88;;;26.42;67.34
76746;BME280;65671;49.976;20.038;2023-06-22T09:23:48;98319.69;;;26.66;69.27
76746;BME280;65671;49.976;20.038;2023-06-22T09:26:20;98316.63;;;26.13;69.20
76746;BME280;65671;49.976;20.038;2023-06-22T09:28:45;98312.31;;;26.63;68.04
76746;BME280;65671;49.976;20.038;2023-06-22T09:31:11;98303.22;;;26.88;69.06
76746;BME280;65671;49.976;20.038;2023-06-22T09:33:37;98312.16;;;27.40;63.97
76746;BME280;65671;49.976;20.038;2023-06-22T09:36:06;98313.66;;;27.78;65.39
76746;BME280;65671;49.976;20.038;2023-06-22T09:38:35;98316.72;;;27.01;64.18
76746;BME280;65671;49.976;20.038;2023-06-22T09:41:01;98312.59;;;25.93;70.54
76746;BME280;65671;49.976;20.038;2023-06-22T09:43:27;98319.41;;;25.72;70.71
76746;BME280;65671;49.976;20.038;2023-06-22T09:45:53;98313.16;;;25.57;70.50
76746;BME280;65671;49.976;20.038;2023-06-22T09:48:19;98314.66;;;25.38;73.56
76746;BME280;65671;49.976;20.038;2023-06-22T09:50:44;98316.47;;;25.41;72.02
76746;BME280;65671;49.976;20.038;2023-06-22T09:53:10;98314.25;;;26.05;68.58
76746;BME280;65671;49.976;20.038;2023-06-22T09:55:35;98316.25;;;26.77;65.59
76746;BME280;65671;49.976;20.038;2023-06-22T09:58:01;98310.16;;;26.98;64.86
76746;BME280;65671;49.976;20.038;2023-06-22T10:00:26;98304.72;;;27.21;64.45
76746;BME280;65671;49.976;20.038;2023-06-22T10:02:52;98302.38;;;27.45;62.67
76746;BME280;65671;49.976;20.038;2023-06-22T10:05:18;98297.50;;;27.93;66.36
76746;BME280;65671;49.976;20.038;2023-06-22T10:07:43;98298.56;;;28.01;65.70
76746;BME280;65671;49.976;20.038;2023-06-22T10:10:12;98307.00;;;27.59;63.41
76746;BME280;65671;49.976;20.038;2023-06-22T10:12:43;98300.00;;;26.70;66.32
76746;BME280;65671;49.976;20.038;2023-06-22T10:15:10;98299.00;;;26.41;65.80
76746;BME280;65671;49.976;20.038;2023-06-22T10:17:35;98304.19;;;26.28;67.87
76746;BME280;65671;49.976;20.038;2023-06-22T10:20:01;98300.47;;;26.37;65.63
76746;BME280;65671;49.976;20.038;2023-06-22T10:22:37;98302.50;;;26.93;65.95
76746;BME280;65671;49.976;20.038;2023-06-22T10:25:02;98291.47;;;28.00;64.10
76746;BME280;65671;49.976;20.038;2023-06-22T10:27:32;98301.81;;;27.89;68.72
76746;BME280;65671;49.976;20.038;2023-06-22T10:29:57;98296.19;;;26.93;66.18
76746;BME280;65671;49.976;20.038;2023-06-22T10:32:23;98300.44;;;26.88;67.86
76746;BME280;65671;49.976;20.038;2023-06-22T10:34:48;98297.13;;;27.15;64.77
76746;BME280;65671;49.976;20.038;2023-06-22T10:37:14;98298.94;;;27.24;62.99
76746;BME280;65671;49.976;20.038;2023-06-22T10:39:39;98299.38;;;26.80;64.71
76746;BME280;65671;49.976;20.038;2023-06-22T10:42:05;98297.19;;;27.27;65.43
76746;BME280;65671;49.976;20.038;2023-06-22T10:44:30;98291.13;;;26.91;66.21
76746;BME280;65671;49.976;20.038;2023-06-22T10:46:56;98282.53;;;26.63;66.83
76746;BME280;65671;49.976;20.038;2023-06-22T10:49:21;98284.47;;;27.14;65.41
76746;BME280;65671;49.976;20.038;2023-06-22T10:51:46;98275.63;;;27.58;63.51
76746;BME280;65671;49.976;20.038;2023-06-22T10:54:12;98279.16;;;27.59;65.76
76746;BME280;65671;49.976;20.038;2023-06-22T10:56:39;98280.38;;;26.79;64.27
76746;BME280;65671;49.976;20.038;2023-06-22T10:59:05;98271.41;;;26.63;64.26
76746;BME280;65671;49.976;20.038;2023-06-22T11:01:30;98275.78;;;26.39;65.76
76746;BME280;65671;49.976;20.038;2023-06-22T11:03:59;98277.13;;;27.11;64.10
76746;BME280;65671;49.976;20.038;2023-06-22T11:06:24;98260.22;;;27.63;60.25
76746;BME280;65671;49.976;20.038;2023-06-22T11:08:50;98261.19;;;28.24;59.62
76746;BME280;65671;49.976;20.038;2023-06-22T11:11:15;98258.13;;;28.22;61.64
76746;BME280;65671;49.976;20.038;2023-06-22T11:13:43;98259.69;;;28.57;61.18
76746;BME280;65671;49.976;20.038;2023-06-22T11:16:10;98268.94;;;27.98;60.62
76746;BME280;65671;49.976;20.038;2023-06-22T11:18:36;98261.44;;;27.51;64.04
76746;BME280;65671;49.976;20.038;2023-06-22T11:21:01;98267.22;;;28.17;60.00
76746;BME280;65671;49.976;20.038;2023-06-22T11:23:27;98254.09;;;28.57;59.09
76746;BME280;65671;49.976;20.038;2023-06-22T11:25:54;98254.88;;;28.57;57.27
76746;BME280;65671;49.976;20.038;2023-06-22T11:28:19;98250.56;;;28.73;57.75
76746;BME280;65671;49.976;20.038;2023-06-22T11:30:45;98246.75;;;28.37;57.82
76746;BME280;65671;49.976;20.038;2023-06-22T11:33:10;98233.59;;;28.65;58.20
76746;BME280;65671;49.976;20.038;2023-06-22T11:35:36;98240.94;;;28.85;58.38
76746;BME280;65671;49.976;20.038;2023-06-22T11:38:02;98243.22;;;28.42;59.50
76746;BME280;65671;49.976;20.038;2023-06-22T11:40:29;98237.59;;;28.09;60.96
76746;BME280;65671;49.976;20.038;2023-06-22T11:42:54;98249.91;;;27.75;61.69
76746;BME280;65671;49.976;20.038;2023-06-22T11:45:20;98239.09;;;27.99;60.02
76746;BME280;65671;49.976;20.038;2023-06-22T11:47:46;98241.13;;;28.04;61.41
76746;BME280;65671;49.976;20.038;2023-06-22T11:50:11;98236.66;;;28.78;59.29
76746;BME280;65671;49.976;20.038;2023-06-22T11:52:37;98230.22;;;29.11;58.61
76746;BME280;65671;49.976;20.038;2023-06-22T11:55:24;98224.97;;;28.86;55.87
76746;BME280;65671;49.976;20.038;2023-06-22T11:57:54;98224.94;;;29.02;56.47
76746;BME280;65671;49.976;20.038;2023-06-22T12:00:20;98230.47;;;29.24;57.38
76746;BME280;65671;49.976;20.038;2023-06-22T12:02:49;98215.50;;;29.27;54.42
76746;BME280;65671;49.976;20.038;2023-06-22T12:05:14;98209.47;;;29.01;58.06
76746;BME280;65671;49.976;20.038;2023-06-22T12:07:40;98211.03;;;28.52;57.19
76746;BME280;65671;49.976;20.038;2023-06-22T12:10:06;98217.38;;;28.19;58.34
76746;BME280;65671;49.976;20.038;2023-06-22T12:12:31;98220.06;;;27.81;60.04
76746;BME280;65671;49.976;20.038;2023-06-22T12:14:57;98223.63;;;27.87;59.62
76746;BME280;65671;49.976;20.038;2023-06-22T12:17:22;98215.84;;;28.07;58.05
76746;BME280;65671;49.976;20.038;2023-06-22T12:19:47;98225.22;;;28.38;57.44
76746;BME280;65671;49.976;20.038;2023-06-22T12:22:15;98217.56;;;29.10;57.89
76746;BME280;65671;49.976;20.038;2023-06-22T12:24:40;98218.75;;;29.43;55.36
76746;BME280;65671;49.976;20.038;2023-06-22T12:27:06;98218.53;;;29.93;58.18
76746;BME280;65671;49.976;20.038;2023-06-22T12:29:31;98213.44;;;29.91;54.49
76746;BME280;65671;49.976;20.038;2023-06-22T12:31:56;98212.50;;;29.77;52.92
76746;BME280;65671;49.976;20.038;2023-06-22T12:34:22;98216.69;;;30.01;54.59
76746;BME280;65671;49.976;20.038;2023-06-22T12:36:47;98207.94;;;29.06;55.81
76746;BME280;65671;49.976;20.038;2023-06-22T12:39:14;98203.38;;;29.08;52.62
76746;BME280;65671;49.976;20.038;2023-06-22T12:41:39;98203.19;;;28.90;55.40
76746;BME280;65671;49.976;20.038;2023-06-22T12:44:04;98207.69;;;29.09;53.81
76746;BME280;65671;49.976;20.038;2023-06-22T12:46:30;98200.41;;;28.51;55.11